Time;durP1;ratioP1;P1;durP2;ratioP2;P2;SDS_P1;SDS_P2;PMS_P1;PMS_P2;Temp;Humidity;BMP_temperature;BMP_pressure;BME280_temperature;BME280_humidity;BME280_pressure;Samples;Min_cycle;Max_cycle;Signal;HPM_P1;HPM_P2
2024/02/20 00:00:19;;;;;;;34.72;4.32;;;7.60;99.90;;;;;;4986055;28;20427;-75
2024/02/20 00:02:45;;;;;;;36.40;4.85;;;7.60;99.90;;;;;;4986492;28;20023;-75
2024/02/20 00:05:12;;;;;;;37.58;5.43;;;7.60;99.90;;;;;;4981871;28;20395;-74
2024/02/20 00:07:39;;;;;;;32.65;4.65;;;7.60;99.90;;;;;;4981811;28;20026;-75
2024/02/20 00:10:09;;;;;;;33.58;4.90;;;7.50;99.90;;;;;;4974251;28;20022;-74
2024/02/20 00:12:38;;;;;;;32.15;4.38;;;7.60;99.90;;;;;;4973244;28;20078;-74
2024/02/20 00:15:06;;;;;;;29.33;4.55;;;7.60;99.90;;;;;;4985382;28;20096;-74
2024/02/20 00:17:33;;;;;;;29.88;4.38;;;7.60;99.90;;;;;;4986385;28;20022;-74
2024/02/20 00:19:59;;;;;;;35.47;5.20;;;7.60;99.90;;;;;;4985568;28;20031;-74
2024/02/20 00:22:25;;;;;;;31.55;4.70;;;7.60;99.90;;;;;;4986231;28;20439;-75
2024/02/20 00:24:52;;;;;;;31.48;4.63;;;7.50;99.90;;;;;;4985609;28;20058;-74
2024/02/20 00:27:17;;;;;;;27.20;4.13;;;7.50;99.90;;;;;;4982471;28;20109;-73
2024/02/20 00:29:43;;;;;;;35.40;4.93;;;7.50;99.90;;;;;;4979956;28;20121;-75
2024/02/20 00:32:09;;;;;;;26.38;4.47;;;7.50;99.90;;;;;;4995074;28;20452;-75
2024/02/20 00:34:35;;;;;;;26.40;4.05;;;7.50;99.90;;;;;;4981388;28;20023;-75
2024/02/20 00:37:01;;;;;;;26.88;4.63;;;7.40;99.90;;;;;;4989151;28;20029;-75
2024/02/20 00:39:27;;;;;;;21.95;3.60;;;7.40;99.90;;;;;;4989026;28;20354;-74
2024/02/20 00:41:53;;;;;;;20.75;3.97;;;7.40;99.90;;;;;;4996366;28;20026;-73
2024/02/20 00:44:19;;;;;;;37.67;4.90;;;7.40;99.90;;;;;;4999604;28;20451;-75
2024/02/20 00:46:45;;;;;;;29.42;4.30;;;7.40;99.90;;;;;;5002075;28;20027;-74
2024/02/20 00:49:11;;;;;;;33.10;4.32;;;7.40;99.90;;;;;;4994716;28;20041;-74
2024/02/20 00:51:37;;;;;;;38.65;4.90;;;7.40;99.90;;;;;;4989546;28;20106;-74
2024/02/20 00:54:04;;;;;;;25.52;4.13;;;7.30;99.90;;;;;;4988764;28;20109;-74
2024/02/20 00:56:30;;;;;;;32.13;4.40;;;7.30;99.90;;;;;;4989435;28;20049;-74
2024/02/20 00:58:55;;;;;;;34.72;5.60;;;7.30;99.90;;;;;;5003230;28;20022;-75
2024/02/20 01:01:21;;;;;;;30.67;4.65;;;7.30;99.90;;;;;;5003552;28;20337;-75
2024/02/20 01:03:49;;;;;;;27.55;4.30;;;7.30;99.90;;;;;;4994121;28;20018;-74
2024/02/20 01:06:16;;;;;;;33.70;4.72;;;7.30;99.90;;;;;;4998245;28;20026;-75
2024/02/20 01:08:41;;;;;;;27.90;4.45;;;7.30;99.90;;;;;;4984774;28;20092;-74
2024/02/20 01:11:07;;;;;;;41.60;5.88;;;7.30;99.90;;;;;;4997257;28;20419;-74
2024/02/20 01:13:33;;;;;;;32.45;4.82;;;7.30;99.90;;;;;;4994666;28;20065;-75
2024/02/20 01:15:59;;;;;;;32.30;4.57;;;7.20;99.90;;;;;;4983834;28;20051;-74
2024/02/20 01:18:25;;;;;;;37.10;5.43;;;7.20;99.90;;;;;;4984014;28;20408;-74
2024/02/20 01:20:52;;;;;;;32.58;5.57;;;7.30;99.90;;;;;;4994122;28;20034;-72
2024/02/20 01:23:18;;;;;;;32.08;5.32;;;7.20;99.90;;;;;;4997753;28;20038;-74
2024/02/20 01:25:44;;;;;;;29.83;4.85;;;7.20;99.90;;;;;;5001771;28;20030;-74
2024/02/20 01:28:11;;;;;;;26.48;4.38;;;7.20;99.90;;;;;;4996952;28;20475;-74
2024/02/20 01:30:37;;;;;;;32.95;5.28;;;7.20;99.90;;;;;;4995188;28;20472;-74
2024/02/20 01:33:03;;;;;;;37.13;5.38;;;7.20;99.90;;;;;;5006033;28;20056;-74
2024/02/20 01:35:29;;;;;;;33.50;4.80;;;7.20;99.90;;;;;;4984744;28;20030;-74
2024/02/20 01:37:58;;;;;;;34.25;5.55;;;7.20;99.90;;;;;;4989019;28;20037;-74
2024/02/20 01:40:24;;;;;;;29.98;5.07;;;7.20;99.90;;;;;;4999116;28;20037;-74
2024/02/20 01:43:00;;;;;;;28.52;4.68;;;7.20;99.90;;;;;;4990486;28;20023;-74
2024/02/20 01:45:28;;;;;;;31.75;4.80;;;7.10;99.90;;;;;;4991229;28;20026;-74
2024/02/20 01:48:00;;;;;;;28.80;5.43;;;7.10;99.90;;;;;;5001571;28;20022;-74
2024/02/20 01:50:28;;;;;;;34.92;5.43;;;7.10;99.90;;;;;;4980222;28;20479;-74
2024/02/20 01:52:53;;;;;;;29.13;4.80;;;7.10;99.90;;;;;;4995425;28;20475;-74
2024/02/20 01:55:20;;;;;;;25.52;3.47;;;7.10;99.90;;;;;;5001443;28;20026;-74
2024/02/20 01:57:47;;;;;;;26.40;3.90;;;7.10;99.90;;;;;;4997877;28;20025;-74
2024/02/20 02:00:13;;;;;;;24.13;5.22;;;7.10;99.90;;;;;;4993649;28;20536;-74
2024/02/20 02:02:39;;;;;;;25.35;3.78;;;7.10;99.90;;;;;;4998908;28;20030;-74
2024/02/20 02:05:05;;;;;;;28.95;4.22;;;7.10;99.90;;;;;;5004489;28;20488;-74
2024/02/20 02:07:31;;;;;;;21.60;3.50;;;7.00;99.90;;;;;;4998997;28;20026;-74
2024/02/20 02:09:56;;;;;;;29.50;3.97;;;7.10;99.90;;;;;;4976964;28;20484;-74
2024/02/20 02:12:22;;;;;;;27.17;3.95;;;7.00;99.90;;;;;;5003938;28;20496;-74
2024/02/20 02:14:48;;;;;;;27.67;4.03;;;7.00;99.90;;;;;;4996084;28;20080;-74
2024/02/20 02:17:14;;;;;;;32.28;4.60;;;7.10;99.90;;;;;;5001631;28;20037;-74
2024/02/20 02:19:41;;;;;;;33.08;4.25;;;7.00;99.90;;;;;;4995912;28;20113;-73
2024/02/20 02:22:07;;;;;;;31.60;4.03;;;7.00;99.90;;;;;;4993066;28;20015;-74
2024/02/20 02:24:36;;;;;;;29.58;4.50;;;7.00;99.90;;;;;;4981943;28;20014;-74
2024/02/20 02:27:04;;;;;;;32.53;3.80;;;7.00;99.90;;;;;;5000807;28;20057;-74
2024/02/20 02:29:33;;;;;;;33.63;4.03;;;7.00;99.90;;;;;;4975284;28;20026;-74
2024/02/20 02:32:00;;;;;;;25.95;3.95;;;7.00;99.90;;;;;;4995025;28;20037;-74
2024/02/20 02:34:29;;;;;;;26.70;3.88;;;7.00;99.90;;;;;;4976434;28;20108;-74
2024/02/20 02:36:56;;;;;;;24.38;4.70;;;7.00;99.90;;;;;;4996084;28;20484;-74
2024/02/20 02:39:23;;;;;;;25.83;3.72;;;7.00;99.90;;;;;;4988219;28;20456;-74
2024/02/20 02:41:50;;;;;;;27.23;4.85;;;7.00;99.90;;;;;;4998235;28;20040;-74
2024/02/20 02:44:16;;;;;;;31.38;3.83;;;7.00;99.90;;;;;;4982818;28;20076;-74
2024/02/20 02:46:42;;;;;;;27.73;4.18;;;7.00;99.90;;;;;;5000557;28;20030;-74
2024/02/20 02:49:08;;;;;;;35.75;4.72;;;7.00;99.90;;;;;;4978281;28;20061;-74
2024/02/20 02:51:34;;;;;;;29.02;4.22;;;7.00;99.90;;;;;;4992610;28;20120;-74
2024/02/20 02:54:00;;;;;;;32.28;4.50;;;7.00;99.90;;;;;;4999185;28;20062;-74
2024/02/20 02:56:28;;;;;;;28.90;4.00;;;7.00;99.90;;;;;;4999989;28;20026;-74
2024/02/20 02:58:54;;;;;;;25.85;4.65;;;7.00;99.90;;;;;;4992568;28;20105;-74
2024/02/20 03:01:20;;;;;;;30.42;4.40;;;7.00;99.90;;;;;;4994889;28;20375;-74
2024/02/20 03:03:46;;;;;;;34.00;4.28;;;7.00;99.90;;;;;;5000575;28;20026;-74
2024/02/20 03:06:12;;;;;;;32.60;4.32;;;7.00;99.90;;;;;;4978543;28;20056;-74
2024/02/20 03:08:38;;;;;;;29.17;4.85;;;7.00;99.90;;;;;;4992606;28;20077;-74
2024/02/20 03:11:07;;;;;;;35.88;4.60;;;7.00;99.90;;;;;;4998140;28;20022;-74
2024/02/20 03:13:33;;;;;;;23.83;4.82;;;7.00;99.90;;;;;;5000174;28;20127;-74
2024/02/20 03:16:06;;;;;;;31.65;4.30;;;7.00;99.90;;;;;;4992233;28;20042;-74
2024/02/20 03:18:33;;;;;;;35.00;4.68;;;7.00;99.90;;;;;;4993272;28;20166;-74
2024/02/20 03:21:02;;;;;;;27.08;4.45;;;7.00;99.90;;;;;;4999909;28;20615;-74
2024/02/20 03:23:32;;;;;;;19.92;4.68;;;7.00;99.90;;;;;;4998666;28;20026;-75
2024/02/20 03:25:58;;;;;;;34.10;4.90;;;7.00;99.90;;;;;;4991841;28;20014;-74
2024/02/20 03:28:29;;;;;;;24.58;4.78;;;7.00;99.90;;;;;;4978331;28;20026;-72
2024/02/20 03:30:55;;;;;;;23.45;3.97;;;7.00;99.90;;;;;;4982069;28;20513;-74
2024/02/20 03:33:21;;;;;;;30.00;4.53;;;7.00;99.90;;;;;;4991089;28;20105;-73
2024/02/20 03:35:47;;;;;;;27.73;4.35;;;7.00;99.90;;;;;;5005226;28;20026;-73
2024/02/20 03:38:13;;;;;;;26.13;4.57;;;7.00;99.90;;;;;;4979226;28;20426;-74
2024/02/20 03:40:40;;;;;;;27.67;4.07;;;7.00;99.90;;;;;;4975068;28;20050;-74
2024/02/20 03:43:05;;;;;;;32.80;4.88;;;7.00;99.90;;;;;;4988082;28;20110;-74
2024/02/20 03:45:31;;;;;;;28.83;4.13;;;7.10;99.90;;;;;;5001674;28;20125;-74
2024/02/20 03:47:57;;;;;;;33.28;4.22;;;7.00;99.90;;;;;;4992367;28;20381;-74
2024/02/20 03:50:23;;;;;;;25.10;4.30;;;7.00;99.90;;;;;;4999441;28;20014;-74
2024/02/20 03:52:50;;;;;;;36.85;4.65;;;7.00;99.90;;;;;;4997449;28;20018;-74
2024/02/20 03:55:16;;;;;;;33.97;4.35;;;7.00;99.90;;;;;;4973902;28;20018;-74
2024/02/20 03:57:42;;;;;;;30.48;3.72;;;7.00;99.90;;;;;;4996068;28;20088;-74
2024/02/20 04:00:14;;;;;;;24.75;4.25;;;7.00;99.90;;;;;;4987738;28;20125;-74
2024/02/20 04:02:42;;;;;;;22.67;3.58;;;7.00;99.90;;;;;;4979768;28;20061;-74
2024/02/20 04:05:12;;;;;;;24.30;4.55;;;7.00;99.90;;;;;;4986960;28;20030;-74
2024/02/20 04:07:41;;;;;;;31.33;4.60;;;7.00;99.90;;;;;;4998401;28;20039;-74
2024/02/20 04:10:12;;;;;;;32.22;4.72;;;7.00;99.90;;;;;;4988874;28;20026;-74
2024/02/20 04:12:38;;;;;;;33.95;4.30;;;6.90;99.90;;;;;;4985985;28;20053;-74
2024/02/20 04:15:08;;;;;;;33.15;4.40;;;7.00;99.90;;;;;;4994216;28;20042;-75
2024/02/20 04:17:35;;;;;;;36.93;4.07;;;7.00;99.90;;;;;;4972993;28;20037;-74
2024/02/20 04:20:03;;;;;;;33.00;4.85;;;7.00;99.90;;;;;;4974247;28;20583;-74
2024/02/20 04:22:32;;;;;;;37.80;4.97;;;7.00;99.90;;;;;;4974222;28;20030;-74
2024/02/20 04:24:59;;;;;;;36.47;5.07;;;7.00;99.90;;;;;;4979087;28;20518;-74
2024/02/20 04:27:26;;;;;;;32.85;3.80;;;7.00;99.90;;;;;;4966053;28;20089;-74
2024/02/20 04:29:51;;;;;;;26.80;4.03;;;7.00;99.90;;;;;;4960456;28;20023;-74
2024/02/20 04:32:18;;;;;;;39.47;4.65;;;7.10;99.90;;;;;;4958272;28;20030;-74
2024/02/20 04:34:44;;;;;;;28.25;4.40;;;7.10;99.90;;;;;;4982651;28;20031;-74
2024/02/20 04:37:10;;;;;;;39.70;5.47;;;7.00;99.90;;;;;;4973050;28;20027;-74
2024/02/20 04:39:36;;;;;;;26.08;4.20;;;7.00;99.90;;;;;;4983583;28;20031;-74
2024/02/20 04:42:02;;;;;;;29.38;5.38;;;7.00;99.90;;;;;;4984030;28;20038;-74
2024/02/20 04:44:28;;;;;;;31.90;5.80;;;7.00;99.90;;;;;;4979320;28;20571;-74
2024/02/20 04:46:54;;;;;;;32.05;5.10;;;7.00;99.90;;;;;;4975473;28;20113;-74
2024/02/20 04:49:20;;;;;;;29.50;4.57;;;7.00;99.90;;;;;;4978772;28;20465;-74
2024/02/20 04:51:46;;;;;;;26.10;4.68;;;7.00;99.90;;;;;;4982933;28;20019;-74
2024/02/20 04:54:12;;;;;;;27.02;5.20;;;7.00;99.90;;;;;;4961142;28;20373;-74
2024/02/20 04:56:38;;;;;;;31.27;5.55;;;7.00;99.90;;;;;;4974954;28;20019;-74
2024/02/20 04:59:04;;;;;;;28.73;4.95;;;7.00;99.90;;;;;;4965167;28;20504;-73
2024/02/20 05:01:30;;;;;;;33.90;4.75;;;7.00;99.90;;;;;;4964889;28;20042;-73
2024/02/20 05:03:56;;;;;;;37.72;5.07;;;7.00;99.90;;;;;;4975220;28;20057;-74
2024/02/20 05:06:22;;;;;;;28.85;4.80;;;7.00;99.90;;;;;;4960203;28;20080;-74
2024/02/20 05:08:47;;;;;;;32.33;5.10;;;7.00;99.90;;;;;;4982753;28;20026;-73
2024/02/20 05:11:13;;;;;;;36.47;5.45;;;7.00;99.90;;;;;;4978118;28;20037;-74
2024/02/20 05:13:40;;;;;;;27.23;5.20;;;7.00;99.90;;;;;;4957931;28;20109;-74
2024/02/20 05:16:06;;;;;;;34.45;6.00;;;7.00;99.90;;;;;;4957407;28;20063;-74
2024/02/20 05:18:31;;;;;;;30.80;5.80;;;7.00;99.90;;;;;;4968049;28;20023;-74
2024/02/20 05:20:57;;;;;;;31.63;5.10;;;7.10;99.90;;;;;;4953632;28;20507;-74
2024/02/20 05:23:23;;;;;;;25.63;5.00;;;7.10;99.90;;;;;;4969468;28;20030;-74
2024/02/20 05:25:48;;;;;;;31.27;5.53;;;7.10;99.90;;;;;;4951033;28;20089;-74
2024/02/20 05:28:14;;;;;;;21.73;4.60;;;7.10;99.90;;;;;;4969348;28;20547;-75
2024/02/20 05:30:40;;;;;;;34.20;5.72;;;7.10;99.90;;;;;;4940272;28;20019;-73
2024/02/20 05:33:06;;;;;;;28.40;5.93;;;7.00;99.90;;;;;;4967730;28;20022;-74
2024/02/20 05:35:32;;;;;;;28.00;5.53;;;7.00;99.90;;;;;;4968908;28;20027;-73
2024/02/20 05:37:58;;;;;;;36.00;6.15;;;7.00;99.90;;;;;;4974081;28;20031;-74
2024/02/20 05:40:24;;;;;;;32.30;5.35;;;7.00;99.90;;;;;;4959554;28;20529;-74
2024/02/20 05:42:50;;;;;;;40.70;6.88;;;7.00;99.90;;;;;;4982358;28;20058;-74
2024/02/20 05:45:19;;;;;;;22.08;5.25;;;7.00;99.90;;;;;;4950951;28;20121;-74
2024/02/20 05:47:45;;;;;;;34.17;6.57;;;6.90;99.90;;;;;;4980396;28;20030;-74
2024/02/20 05:50:11;;;;;;;35.00;6.05;;;6.90;99.90;;;;;;4958087;28;20018;-74
2024/02/20 05:52:38;;;;;;;21.75;5.15;;;6.90;99.90;;;;;;4965631;28;20114;-74
2024/02/20 05:55:05;;;;;;;34.70;6.30;;;6.90;99.90;;;;;;4982815;28;20022;-75
2024/02/20 05:57:31;;;;;;;38.65;6.53;;;7.00;99.90;;;;;;4977534;28;20026;-74
2024/02/20 05:59:56;;;;;;;29.70;5.35;;;7.00;99.90;;;;;;4973988;28;20022;-74
2024/02/20 06:02:22;;;;;;;30.13;5.80;;;6.90;99.90;;;;;;4982279;28;20440;-74
2024/02/20 06:04:49;;;;;;;29.08;6.28;;;6.90;99.90;;;;;;4968422;28;20027;-73
2024/02/20 06:07:15;;;;;;;37.70;6.20;;;6.90;99.90;;;;;;4971482;28;20077;-73
2024/02/20 06:09:41;;;;;;;34.47;6.40;;;7.00;99.90;;;;;;4983353;28;20097;-74
2024/02/20 06:12:09;;;;;;;39.80;7.07;;;7.00;99.90;;;;;;4973647;28;20341;-74
2024/02/20 06:14:35;;;;;;;42.67;6.68;;;7.00;99.90;;;;;;4979186;28;20038;-74
2024/02/20 06:17:01;;;;;;;29.48;6.90;;;7.00;99.90;;;;;;4995756;28;20570;-74
2024/02/20 06:19:27;;;;;;;39.42;7.72;;;7.00;99.90;;;;;;4994321;28;20084;-75
2024/02/20 06:21:52;;;;;;;32.75;7.28;;;7.00;99.90;;;;;;4994015;28;20121;-74
2024/02/20 06:24:18;;;;;;;30.52;7.60;;;7.00;99.90;;;;;;5003795;28;20487;-74
2024/02/20 06:26:44;;;;;;;29.00;6.43;;;7.00;99.90;;;;;;4995580;28;20031;-73
2024/02/20 06:29:13;;;;;;;28.02;6.90;;;7.10;99.90;;;;;;5001289;28;20034;-73
2024/02/20 06:31:38;;;;;;;36.97;6.45;;;7.10;99.90;;;;;;4978436;28;20048;-73
2024/02/20 06:34:08;;;;;;;26.92;6.68;;;7.00;99.90;;;;;;4992976;28;20396;-72
2024/02/20 06:36:34;;;;;;;33.55;7.47;;;7.00;99.90;;;;;;4997191;28;20504;-74
2024/02/20 06:38:59;;;;;;;31.13;6.53;;;7.10;99.90;;;;;;4998260;28;20041;-75
2024/02/20 06:41:25;;;;;;;32.67;6.50;;;7.10;99.90;;;;;;4982721;28;20080;-73
2024/02/20 06:43:51;;;;;;;30.58;7.38;;;7.10;99.90;;;;;;4986262;28;20109;-72
2024/02/20 06:46:17;;;;;;;34.47;7.03;;;7.10;99.90;;;;;;4978139;28;20141;-73
2024/02/20 06:48:46;;;;;;;48.20;7.93;;;7.10;99.90;;;;;;4980763;28;20033;-73
2024/02/20 06:51:12;;;;;;;26.17;6.30;;;7.10;99.90;;;;;;4973430;28;20112;-73
2024/02/20 06:53:38;;;;;;;34.83;7.40;;;7.20;99.90;;;;;;4982896;28;20046;-74
2024/02/20 06:56:04;;;;;;;37.15;7.50;;;7.20;99.90;;;;;;4993681;28;20099;-74
2024/02/20 06:58:29;;;;;;;33.65;6.78;;;7.20;99.90;;;;;;4995801;28;20028;-74
2024/02/20 07:00:55;;;;;;;27.05;6.57;;;7.20;99.90;;;;;;4984474;28;20023;-74
2024/02/20 07:03:21;;;;;;;38.25;7.15;;;7.30;99.90;;;;;;4984626;28;20033;-74
2024/02/20 07:05:47;;;;;;;26.55;6.53;;;7.30;99.90;;;;;;4990562;28;20030;-74
2024/02/20 07:08:13;;;;;;;29.23;6.47;;;7.30;99.90;;;;;;4988489;28;20574;-73
2024/02/20 07:10:39;;;;;;;39.63;7.90;;;7.30;99.90;;;;;;4991322;28;20050;-74
2024/02/20 07:13:05;;;;;;;37.30;7.70;;;7.30;99.90;;;;;;4988002;28;20498;-74
2024/02/20 07:15:31;;;;;;;22.52;6.43;;;7.20;99.90;;;;;;4968368;28;20054;-74
2024/02/20 07:17:57;;;;;;;25.35;6.13;;;7.20;99.90;;;;;;4985062;28;20124;-74
2024/02/20 07:20:23;;;;;;;28.77;5.80;;;7.20;99.90;;;;;;4987502;28;20456;-74
2024/02/20 07:22:49;;;;;;;35.42;6.50;;;7.20;99.90;;;;;;4979415;28;20129;-74
2024/02/20 07:25:18;;;;;;;29.42;6.65;;;7.20;99.90;;;;;;4974120;28;20027;-74
2024/02/20 07:27:45;;;;;;;36.95;6.68;;;7.20;99.90;;;;;;4995667;28;20030;-74
2024/02/20 07:30:11;;;;;;;30.55;6.32;;;7.20;99.90;;;;;;4984214;28;20029;-74
2024/02/20 07:32:40;;;;;;;34.15;7.15;;;7.20;99.90;;;;;;4982198;28;20053;-74
2024/02/20 07:35:09;;;;;;;37.58;6.72;;;7.20;99.90;;;;;;4989354;28;20018;-74
2024/02/20 07:37:36;;;;;;;30.05;6.45;;;7.20;99.90;;;;;;4985240;28;20030;-74
2024/02/20 07:40:02;;;;;;;33.40;6.50;;;7.20;99.90;;;;;;4987017;28;20030;-74
2024/02/20 07:42:28;;;;;;;31.83;6.13;;;7.20;99.90;;;;;;4989782;28;20677;-74
2024/02/20 07:44:53;;;;;;;37.17;6.97;;;7.30;99.90;;;;;;4970788;28;20511;-74
2024/02/20 07:47:19;;;;;;;33.83;7.05;;;7.30;99.90;;;;;;4987343;28;20026;-74
2024/02/20 07:49:48;;;;;;;31.55;6.97;;;7.30;99.90;;;;;;4988815;28;20027;-74
2024/02/20 07:52:13;;;;;;;30.85;7.43;;;7.30;99.90;;;;;;4996088;28;20596;-74
2024/02/20 07:54:40;;;;;;;26.08;6.35;;;7.40;99.90;;;;;;4988738;28;20109;-75
2024/02/20 07:57:06;;;;;;;39.28;7.60;;;7.40;99.90;;;;;;4991154;28;20116;-74
2024/02/20 07:59:32;;;;;;;22.63;6.10;;;7.40;99.90;;;;;;5005873;28;20116;-74
2024/02/20 08:02:02;;;;;;;33.92;6.90;;;7.50;99.90;;;;;;4991024;28;20023;-75
2024/02/20 08:04:28;;;;;;;31.77;5.78;;;7.50;99.90;;;;;;4987987;28;20026;-74
2024/02/20 08:06:54;;;;;;;31.42;5.72;;;7.50;99.90;;;;;;4989992;28;20053;-75
2024/02/20 08:09:21;;;;;;;29.40;7.00;;;7.50;99.90;;;;;;4990353;28;20030;-74
2024/02/20 08:11:47;;;;;;;32.67;6.57;;;7.50;99.90;;;;;;4958913;28;20027;-74
2024/02/20 08:14:12;;;;;;;27.13;5.80;;;7.60;99.90;;;;;;4990107;28;20026;-74
2024/02/20 08:16:39;;;;;;;30.00;5.60;;;7.60;99.90;;;;;;5000656;28;20396;-74
2024/02/20 08:19:05;;;;;;;32.63;6.80;;;7.60;99.90;;;;;;4980983;28;20033;-75
2024/02/20 08:21:30;;;;;;;28.27;6.47;;;7.60;99.90;;;;;;4998067;28;20030;-73
2024/02/20 08:23:58;;;;;;;28.38;6.32;;;7.70;99.90;;;;;;4963366;28;20042;-74
2024/02/20 08:26:25;;;;;;;26.80;5.97;;;7.70;99.90;;;;;;5001253;28;20072;-75
2024/02/20 08:28:51;;;;;;;32.03;6.70;;;7.70;99.90;;;;;;5003103;28;20543;-75
2024/02/20 08:31:18;;;;;;;36.47;6.80;;;7.80;99.90;;;;;;4995893;28;20145;-75
2024/02/20 08:33:45;;;;;;;33.17;6.65;;;7.80;99.90;;;;;;4996922;28;20535;-74
2024/02/20 08:36:11;;;;;;;27.02;6.60;;;7.80;99.90;;;;;;5001360;28;20026;-75
2024/02/20 08:38:37;;;;;;;26.70;6.30;;;7.80;99.90;;;;;;4980687;28;20065;-75
2024/02/20 08:41:03;;;;;;;25.20;6.63;;;7.90;99.90;;;;;;4986504;28;20113;-75
2024/02/20 08:43:28;;;;;;;28.08;7.00;;;7.80;99.90;;;;;;4979551;28;20514;-74
2024/02/20 08:45:54;;;;;;;25.55;6.45;;;7.90;99.90;;;;;;4974455;28;20030;-74
2024/02/20 08:48:20;;;;;;;33.33;6.78;;;7.90;99.90;;;;;;4988413;28;20041;-75
2024/02/20 08:50:46;;;;;;;28.50;7.47;;;7.90;99.90;;;;;;4997938;28;20058;-74
2024/02/20 08:53:12;;;;;;;24.45;6.50;;;7.90;99.90;;;;;;4996645;28;20049;-75
2024/02/20 08:55:39;;;;;;;25.40;5.60;;;7.90;99.90;;;;;;4982105;28;20510;-74
2024/02/20 08:58:04;;;;;;;25.65;6.30;;;7.90;99.90;;;;;;4997026;28;20023;-75
2024/02/20 09:00:31;;;;;;;28.08;6.85;;;8.00;99.90;;;;;;4980870;28;20041;-75
2024/02/20 09:02:58;;;;;;;29.75;5.97;;;8.00;99.90;;;;;;4987482;28;20041;-75
2024/02/20 09:05:24;;;;;;;32.58;6.90;;;8.10;99.90;;;;;;4989291;28;20454;-74
2024/02/20 09:07:50;;;;;;;30.83;7.28;;;8.10;99.90;;;;;;4995337;28;20108;-74
2024/02/20 09:10:16;;;;;;;36.67;7.50;;;8.10;99.90;;;;;;4974222;28;20652;-75
2024/02/20 09:12:42;;;;;;;26.90;6.10;;;8.10;99.90;;;;;;4988677;28;20030;-75
2024/02/20 09:15:08;;;;;;;36.70;8.60;;;8.20;99.90;;;;;;4995387;28;20065;-75
2024/02/20 09:17:34;;;;;;;24.17;6.07;;;8.20;99.90;;;;;;4984486;28;20030;-75
2024/02/20 09:20:00;;;;;;;26.67;6.22;;;8.30;99.90;;;;;;4979332;28;20041;-73
2024/02/20 09:22:26;;;;;;;30.65;6.75;;;8.30;99.90;;;;;;5000122;28;20380;-75
2024/02/20 09:24:53;;;;;;;35.85;6.95;;;8.40;99.90;;;;;;4995972;28;20136;-75
2024/02/20 09:27:19;;;;;;;29.60;7.00;;;8.50;99.90;;;;;;4974384;28;20049;-75
2024/02/20 09:29:45;;;;;;;33.17;6.55;;;8.50;99.90;;;;;;4981013;28;20575;-75
2024/02/20 09:32:10;;;;;;;30.80;6.30;;;8.50;99.90;;;;;;4999944;28;20026;-75
2024/02/20 09:34:36;;;;;;;33.72;6.78;;;8.50;99.90;;;;;;4992861;28;20383;-74
2024/02/20 09:37:05;;;;;;;28.58;5.90;;;8.60;99.90;;;;;;4995744;28;20545;-75
2024/02/20 09:39:30;;;;;;;31.08;6.15;;;8.60;99.90;;;;;;5002044;28;20023;-76
2024/02/20 09:41:59;;;;;;;25.27;6.55;;;8.60;99.90;;;;;;4997603;28;20029;-75
2024/02/20 09:44:26;;;;;;;25.67;5.40;;;8.60;99.90;;;;;;4991528;28;20464;-75
2024/02/20 09:46:55;;;;;;;19.95;5.47;;;8.60;99.90;;;;;;4970484;28;20041;-74
2024/02/20 09:49:22;;;;;;;32.20;7.03;;;8.60;99.90;;;;;;5003013;28;20037;-74
2024/02/20 09:51:48;;;;;;;34.30;6.47;;;8.70;99.90;;;;;;4998291;28;20017;-74
2024/02/20 09:54:15;;;;;;;33.03;7.05;;;8.70;99.90;;;;;;4983861;28;20101;-75
2024/02/20 09:56:42;;;;;;;27.92;6.57;;;8.70;99.90;;;;;;5001022;28;20030;-74
2024/02/20 09:59:08;;;;;;;29.05;6.43;;;8.80;99.90;;;;;;4995647;28;20087;-74
2024/02/20 10:01:36;;;;;;;22.45;6.30;;;8.80;99.90;;;;;;4993575;28;20540;-74
2024/02/20 10:04:04;;;;;;;30.13;6.53;;;8.80;99.90;;;;;;4980012;28;20026;-74
2024/02/20 10:06:30;;;;;;;29.48;6.90;;;8.90;99.90;;;;;;4994466;28;20032;-74
2024/02/20 10:08:56;;;;;;;27.15;6.78;;;8.90;99.90;;;;;;5000728;28;20109;-74
2024/02/20 10:11:22;;;;;;;26.67;6.68;;;9.00;99.90;;;;;;4987679;28;20054;-74
2024/02/20 10:13:51;;;;;;;28.40;6.90;;;9.00;99.90;;;;;;4999907;28;20022;-74
2024/02/20 10:16:20;;;;;;;25.15;5.90;;;9.10;99.90;;;;;;4987502;28;20046;-74
2024/02/20 10:19:00;;;;;;;27.70;6.30;;;9.10;99.90;;;;;;5000586;28;20026;-73
2024/02/20 10:21:27;;;;;;;24.23;6.47;;;9.20;99.90;;;;;;4995864;28;20037;-74
2024/02/20 10:24:06;;;;;;;27.70;6.93;;;9.10;99.90;;;;;;4989702;28;20031;-74
2024/02/20 10:26:37;;;;;;;31.42;6.38;;;9.10;99.90;;;;;;5000494;28;20033;-74
2024/02/20 10:29:04;;;;;;;25.00;6.13;;;9.10;99.90;;;;;;4991756;28;20041;-74
2024/02/20 10:31:31;;;;;;;31.83;8.55;;;9.20;99.90;;;;;;4972655;28;20061;-74
2024/02/20 10:33:57;;;;;;;22.70;6.03;;;9.20;99.90;;;;;;4975279;28;20514;-74
2024/02/20 10:36:25;;;;;;;31.63;7.03;;;9.20;99.90;;;;;;4982246;28;20034;-74
2024/02/20 10:39:04;;;;;;;29.25;7.38;;;9.30;99.90;;;;;;4990125;28;20097;-74
2024/02/20 10:41:30;;;;;;;23.65;7.03;;;9.40;99.90;;;;;;4962279;28;20068;-74
2024/02/20 10:43:57;;;;;;;29.67;7.32;;;9.40;99.90;;;;;;4976588;28;20041;-74
2024/02/20 10:46:25;;;;;;;25.33;7.05;;;9.40;99.90;;;;;;5000191;28;20034;-74
2024/02/20 10:48:59;;;;;;;25.90;6.70;;;9.50;99.90;;;;;;4969266;28;20047;-74
2024/02/20 10:51:29;;;;;;;26.10;6.93;;;9.50;99.90;;;;;;5000559;28;20472;-74
2024/02/20 10:53:58;;;;;;;27.95;7.35;;;9.50;99.90;;;;;;4969679;28;20058;-74
2024/02/20 10:56:26;;;;;;;28.75;7.22;;;9.50;99.90;;;;;;4975620;28;20026;-74
2024/02/20 10:58:53;;;;;;;22.80;6.50;;;9.50;99.90;;;;;;4974136;28;20038;-74
2024/02/20 11:01:19;;;;;;;32.17;8.38;;;9.50;99.90;;;;;;4991581;28;20033;-74
2024/02/20 11:03:47;;;;;;;29.05;8.88;;;9.60;99.90;;;;;;4992423;28;20415;-74
2024/02/20 11:06:13;;;;;;;29.10;8.20;;;9.60;99.90;;;;;;4996099;28;20056;-74
2024/02/20 11:08:39;;;;;;;27.52;7.55;;;9.70;99.90;;;;;;4972688;28;20150;-74
2024/02/20 11:11:13;;;;;;;29.77;8.45;;;9.70;99.90;;;;;;4986169;28;20116;-74
2024/02/20 11:13:42;;;;;;;29.48;7.18;;;9.70;99.90;;;;;;4986985;28;20026;-74
2024/02/20 11:16:10;;;;;;;31.58;8.43;;;9.70;99.90;;;;;;4993635;28;20056;-74
2024/02/20 11:18:36;;;;;;;35.70;9.50;;;9.70;99.90;;;;;;4993092;28;20033;-74
2024/02/20 11:21:03;;;;;;;19.27;7.07;;;9.80;99.90;;;;;;4999495;28;20018;-74
2024/02/20 11:23:32;;;;;;;26.55;8.13;;;9.80;99.90;;;;;;4996324;28;20408;-74
2024/02/20 11:26:07;;;;;;;27.95;7.93;;;9.80;99.90;;;;;;4977262;28;20022;-74
2024/02/20 11:28:34;;;;;;;26.83;8.35;;;9.80;99.90;;;;;;4998624;28;20431;-74
2024/02/20 11:31:04;;;;;;;27.30;8.05;;;9.80;99.90;;;;;;4997599;28;20135;-75
2024/02/20 11:33:34;;;;;;;28.08;8.35;;;9.90;99.90;;;;;;4977735;28;20018;-74
2024/02/20 11:36:00;;;;;;;27.48;7.15;;;9.90;99.90;;;;;;4972124;28;20531;-74
2024/02/20 11:38:30;;;;;;;26.27;7.55;;;10.00;99.90;;;;;;4972231;28;20022;-74
2024/02/20 11:40:56;;;;;;;24.50;6.97;;;10.00;99.90;;;;;;4993142;28;20466;-75
2024/02/20 11:43:22;;;;;;;26.77;7.30;;;10.00;99.90;;;;;;4977160;28;20080;-74
2024/02/20 11:45:50;;;;;;;25.85;7.68;;;10.10;99.90;;;;;;4966818;28;20031;-74
2024/02/20 11:48:17;;;;;;;16.60;6.95;;;10.10;99.90;;;;;;4978914;28;20084;-75
2024/02/20 11:50:44;;;;;;;23.35;6.97;;;10.20;99.90;;;;;;4959030;28;20030;-74
2024/02/20 11:53:11;;;;;;;28.05;7.70;;;10.20;99.90;;;;;;4986746;28;20089;-75
2024/02/20 11:55:41;;;;;;;21.75;6.95;;;10.20;99.90;;;;;;4986888;28;20027;-75
2024/02/20 11:58:07;;;;;;;26.80;7.15;;;10.30;99.90;;;;;;4979775;28;20444;-73
2024/02/20 12:00:39;;;;;;;25.42;7.70;;;10.40;99.90;;;;;;4988606;28;20049;-74
2024/02/20 12:03:09;;;;;;;27.48;6.97;;;10.40;99.90;;;;;;4980775;28;20030;-75
2024/02/20 12:05:37;;;;;;;20.52;6.93;;;10.50;99.90;;;;;;4995713;28;20518;-74
2024/02/20 12:08:13;;;;;;;28.40;6.80;;;10.50;99.90;;;;;;4972990;28;20072;-73
2024/02/20 12:10:39;;;;;;;28.20;6.40;;;10.50;99.90;;;;;;4987435;28;20026;-74
2024/02/20 12:13:15;;;;;;;21.77;6.10;;;10.50;99.90;;;;;;4953288;28;20030;-75
2024/02/20 12:15:42;;;;;;;32.70;6.57;;;10.50;99.90;;;;;;4973720;28;20054;-74
2024/02/20 12:18:11;;;;;;;24.55;7.10;;;10.60;99.90;;;;;;4977593;28;20057;-74
2024/02/20 12:20:37;;;;;;;24.70;6.20;;;10.50;99.90;;;;;;4985124;28;20042;-74
2024/02/20 12:23:04;;;;;;;20.45;5.90;;;10.60;99.90;;;;;;4984925;28;20088;-74
2024/02/20 12:25:29;;;;;;;17.73;6.20;;;10.70;99.90;;;;;;4980289;28;20065;-75
2024/02/20 12:27:55;;;;;;;19.85;6.30;;;10.70;99.90;;;;;;4994821;28;20423;-75
2024/02/20 12:30:21;;;;;;;21.67;6.10;;;10.70;99.90;;;;;;4990377;28;20026;-73
2024/02/20 12:32:47;;;;;;;29.38;7.75;;;10.80;99.90;;;;;;4991041;28;20447;-74
2024/02/20 12:35:13;;;;;;;24.38;7.40;;;10.80;99.90;;;;;;4990716;28;20559;-74
2024/02/20 12:37:39;;;;;;;20.70;5.80;;;10.80;99.90;;;;;;4992761;28;20724;-74
2024/02/20 12:40:08;;;;;;;24.95;7.05;;;10.80;99.90;;;;;;4998038;28;20026;-74
2024/02/20 12:42:36;;;;;;;23.70;6.68;;;10.90;99.90;;;;;;4976390;28;20539;-73